Portada
METAR-TAF:

METAR-TAF

Aeroports :

Àqaba, Jordània

latitud: 29-38N, longitud: 035-01E, altitud: 53 m

Observació

L'informe es va fer fa 51 minuts, a les 10:00 UTC
Vent 4 kt del Nord
Temperatura 22°C
Humitat 41%
Pressió 1012 hPa
Visibilitat 10 km o més
sense núvols per sota de 1500 mi sense presència de cumulonimbus.

METAR: OJAQ 011000Z 36004KT CAVOK 22/08 Q1012 NOSIG

Hora: 12:51 (10:51 UTC)

Pronòstic

L'informe es va fer fa 6 hores i 1 minuts, a les 04:50 UTC
Pronòstic vàlid del 01 a les 06 UTC al 02 a les 12 UTC
Vent 10 kt del Nord
Visibilitat 10 km o més
sense núvols per sota de 1500 mi sense presència de cumulonimbus.
Probabilitat 30%
l' 01 a les 12 UTC al 01 a les 20 UTC
Vent 18 kt del Nord
Visibilitat: 3000 m
torb alta de pols

TAF: OJAQ 010450Z 0106/0212 36010KT CAVOK PROB30 0112/0120 36018KT 3000 BLDU

Observacions i pronòstics meteorològics de més de 4000 aeroports (METAR i TAF).

Les estacions disponibles són els punts grocs i vermells al mapa.

Posi el ratolí al punt desitjat per veure el nom de l'estació.

Feu clic per veure les observacions i els pronòstics meteorològics.

Per canviar el mapa: feu clic els botons verds amb una creu de color negre per apropar; al botó verd amb un guió per allunyar la imatge; o en les fletxes verdes per a mapes adjacents.


METAR-TAF: